Terminal Aerodrome Forecast
Issued by NWS

Home | Current Version | Previous Version | Text Only | Print | Product List | Glossary On
Versions: 1 2 3 4 5 6 7 8 9 10 11 12 13 14 15 16 17 18 19 20 21
105
FTUS46 KSEW 260536
TAFCLM
TAF
KCLM 260536Z 2606/2706 VRB03KT P6SM SCT035 OVC150
      TEMPO 2606/2610 BKN035 OVC150
     FM261200 VRB03KT P6SM -RA SCT035 BKN050 OVC110
     FM261500 VRB03KT 5SM -RA BR SCT020 OVC035
     FM261800 VRB03KT 3SM -RA BR SCT006 OVC020
     FM262100 VRB03KT 3SM -RA BR BKN006 OVC012
     FM270300 26005KT 4SM -RA BR BKN006 OVC012=

USA.gov is the U.S. government's official web portal to all federal, state and local government web resources and services.